Time;durP1;ratioP1;P1;durP2;ratioP2;P2;SDS_P1;SDS_P2;PMS_P1;PMS_P2;Temp;Humidity;BMP_temperature;BMP_pressure;BME280_temperature;BME280_humidity;BME280_pressure;Samples;Min_cycle;Max_cycle;Signal;HPM_P1;HPM_P2
2023/02/26 00:01:47;;;;;;;2.55;0.68;;;-0.90;99.90;;;;;;4905758;29;20060;-86
2023/02/26 00:04:14;;;;;;;2.15;0.30;;;-0.80;99.90;;;;;;4912310;29;20067;-86
2023/02/26 00:06:51;;;;;;;2.28;0.55;;;-0.70;99.90;;;;;;4909557;29;20054;-88
2023/02/26 00:09:18;;;;;;;2.38;0.40;;;-0.70;99.90;;;;;;4892360;29;20484;-88
2023/02/26 00:11:45;;;;;;;2.78;0.50;;;-0.60;99.90;;;;;;4912765;29;20515;-87
2023/02/26 00:14:15;;;;;;;3.20;0.50;;;-0.50;99.90;;;;;;4902655;29;20036;-89
2023/02/26 00:16:42;;;;;;;3.25;0.60;;;-0.40;99.90;;;;;;4913217;29;20040;-88
2023/02/26 00:19:10;;;;;;;3.08;0.50;;;-0.20;99.90;;;;;;4910376;29;20513;-88
2023/02/26 00:21:37;;;;;;;3.88;1.17;;;-0.20;99.90;;;;;;4907788;29;20171;-87
2023/02/26 00:24:05;;;;;;;2.60;0.40;;;-0.20;99.90;;;;;;4896351;29;20359;-87
2023/02/26 00:26:33;;;;;;;1.52;0.30;;;-0.20;99.90;;;;;;4910314;29;20028;-86
2023/02/26 00:29:00;;;;;;;3.30;0.85;;;-0.20;99.90;;;;;;4896738;29;20032;-86
2023/02/26 00:31:26;;;;;;;3.10;0.40;;;0.00;99.90;;;;;;4904854;29;20040;-87
2023/02/26 00:33:55;;;;;;;2.58;0.40;;;-0.10;99.90;;;;;;4921315;29;20038;-87
2023/02/26 00:36:42;;;;;;;4.15;0.40;;;0.00;99.90;;;;;;4911715;29;20036;-88
2023/02/26 00:39:43;;;;;;;3.55;0.82;;;0.10;99.90;;;;;;4910869;29;20067;-87
2023/02/26 00:42:10;;;;;;;3.90;0.30;;;0.20;99.90;;;;;;4841634;29;20029;-87
2023/02/26 00:44:38;;;;;;;1.17;0.45;;;0.20;99.90;;;;;;4866403;29;20533;-88
2023/02/26 00:47:15;;;;;;;1.25;0.20;;;0.20;99.90;;;;;;4859242;29;20252;-88
2023/02/26 00:50:09;;;;;;;3.22;0.40;;;0.30;99.90;;;;;;4868671;29;20041;-87
2023/02/26 00:52:43;;;;;;;3.53;0.20;;;0.10;99.90;;;;;;4859004;29;20056;-87
2023/02/26 00:55:09;;;;;;;1.55;0.20;;;0.20;99.90;;;;;;4874967;29;20029;-87
2023/02/26 00:57:36;;;;;;;2.38;0.22;;;0.10;99.90;;;;;;4853552;29;20056;-87
2023/02/26 01:00:06;;;;;;;2.70;0.40;;;0.10;99.90;;;;;;4856427;29;20025;-87
2023/02/26 01:02:34;;;;;;;2.90;0.40;;;0.20;99.90;;;;;;4842764;29;20089;-87
2023/02/26 01:05:00;;;;;;;2.88;0.40;;;0.20;99.90;;;;;;4855343;29;20048;-87
2023/02/26 01:07:28;;;;;;;3.35;0.38;;;0.20;99.90;;;;;;4843765;29;20029;-89
2023/02/26 01:09:54;;;;;;;3.40;0.30;;;0.20;99.90;;;;;;4844571;29;20033;-88
2023/02/26 01:12:20;;;;;;;4.07;0.60;;;0.10;99.90;;;;;;4858958;29;20049;-88
2023/02/26 01:14:46;;;;;;;3.33;0.35;;;0.10;99.90;;;;;;4841371;29;20065;-89
2023/02/26 01:17:18;;;;;;;5.30;0.50;;;0.10;99.90;;;;;;4855639;29;20036;-87
2023/02/26 01:20:00;;;;;;;4.28;0.30;;;0.10;99.90;;;;;;4906672;29;20035;-87
2023/02/26 01:22:53;;;;;;;3.20;0.40;;;0.10;99.90;;;;;;4907928;29;20508;-87
2023/02/26 01:25:47;;;;;;;2.35;0.40;;;0.10;99.90;;;;;;4904289;29;20036;-89
2023/02/26 01:28:13;;;;;;;8.13;0.43;;;0.00;99.90;;;;;;4910070;29;20039;-88
2023/02/26 01:30:39;;;;;;;2.92;0.50;;;-0.10;99.90;;;;;;4911013;29;20047;-88
2023/02/26 01:33:29;;;;;;;2.03;0.30;;;-0.10;99.90;;;;;;4909823;29;20028;-89
2023/02/26 01:36:06;;;;;;;2.20;0.30;;;-0.10;99.90;;;;;;4889934;29;20024;-87
2023/02/26 01:38:53;;;;;;;2.90;0.30;;;-0.20;99.90;;;;;;4910556;29;20032;-88
2023/02/26 01:41:41;;;;;;;1.52;0.20;;;-0.20;99.90;;;;;;4902661;29;20397;-88
2023/02/26 01:44:07;;;;;;;0.98;0.20;;;-0.20;99.90;;;;;;4905471;29;20028;-87
2023/02/26 01:46:42;;;;;;;2.78;0.20;;;-0.30;99.90;;;;;;4907167;29;20050;-86
2023/02/26 01:49:13;;;;;;;2.10;0.20;;;-0.20;99.90;;;;;;4911484;29;20059;-87
2023/02/26 01:51:51;;;;;;;2.08;0.30;;;-0.40;99.90;;;;;;4895717;29;20044;-87
2023/02/26 01:54:20;;;;;;;1.33;0.20;;;-0.40;99.90;;;;;;4904181;29;20422;-88
2023/02/26 01:57:14;;;;;;;1.30;0.35;;;-0.40;99.90;;;;;;4904799;29;20180;-87
2023/02/26 01:59:45;;;;;;;2.53;0.17;;;-0.50;99.90;;;;;;4890879;29;20076;-87
2023/02/26 02:02:15;;;;;;;3.38;0.40;;;-0.40;99.90;;;;;;4902224;29;20039;-89
2023/02/26 02:04:42;;;;;;;2.00;0.20;;;-0.40;99.90;;;;;;4908363;29;20035;-88
2023/02/26 02:07:08;;;;;;;3.60;0.20;;;-0.40;99.90;;;;;;4908186;29;20087;-87
2023/02/26 02:09:34;;;;;;;2.17;0.20;;;-0.40;99.90;;;;;;4906408;29;20032;-86
2023/02/26 02:12:09;;;;;;;1.58;0.22;;;-0.50;99.90;;;;;;4906116;29;20115;-87
2023/02/26 02:14:42;;;;;;;1.75;0.10;;;-0.50;99.90;;;;;;4907070;29;20028;-88
2023/02/26 02:17:11;;;;;;;1.95;0.65;;;-0.50;99.90;;;;;;4912130;29;20042;-88
2023/02/26 02:19:59;;;;;;;1.92;0.20;;;-0.50;99.90;;;;;;4917056;29;20052;-88
2023/02/26 02:22:58;;;;;;;1.25;0.10;;;-0.60;99.90;;;;;;4908480;29;20031;-88
2023/02/26 02:25:48;;;;;;;1.10;0.20;;;-0.80;99.90;;;;;;4917243;29;20111;-88
2023/02/26 02:28:32;;;;;;;2.25;0.10;;;-0.80;99.90;;;;;;4907032;29;20300;-88
2023/02/26 02:31:19;;;;;;;0.82;0.00;;;-0.90;99.90;;;;;;4906495;29;20068;-89
2023/02/26 02:34:03;;;;;;;1.10;0.10;;;-0.80;99.90;;;;;;4903910;29;20024;-89
2023/02/26 02:36:32;;;;;;;1.13;0.10;;;-0.90;99.90;;;;;;4907456;29;20111;-89
2023/02/26 02:39:03;;;;;;;0.60;0.10;;;-0.90;99.90;;;;;;4908950;29;20036;-89
2023/02/26 02:41:34;;;;;;;1.13;0.10;;;-1.00;99.90;;;;;;4910408;29;20028;-90
2023/02/26 02:44:04;;;;;;;1.98;0.08;;;-1.10;99.90;;;;;;4910130;29;20111;-90
2023/02/26 02:46:34;;;;;;;0.40;0.10;;;-1.10;99.90;;;;;;4920176;29;20068;-90
2023/02/26 02:49:14;;;;;;;2.17;0.05;;;-1.20;99.90;;;;;;4904933;29;20040;-89
2023/02/26 02:51:47;;;;;;;0.50;0.10;;;-1.20;99.90;;;;;;4921562;29;20045;-90
2023/02/26 02:54:28;;;;;;;0.40;0.10;;;-1.20;99.90;;;;;;4909062;29;20369;-87
2023/02/26 02:57:00;;;;;;;0.30;0.00;;;-1.30;99.90;;;;;;4907188;29;20056;-87
2023/02/26 02:59:43;;;;;;;1.20;0.00;;;-1.30;99.90;;;;;;4912860;29;20033;-88
2023/02/26 03:02:27;;;;;;;0.40;0.00;;;-1.20;99.90;;;;;;4898136;29;20029;-89
2023/02/26 03:04:53;;;;;;;0.38;0.10;;;-1.20;99.90;;;;;;4909151;29;20032;-88
2023/02/26 03:07:19;;;;;;;1.98;0.10;;;-1.20;99.90;;;;;;4906240;29;20037;-87
2023/02/26 03:09:51;;;;;;;2.70;0.10;;;-1.30;99.90;;;;;;4897914;29;20024;-88
2023/02/26 03:12:17;;;;;;;1.40;0.17;;;-1.30;99.90;;;;;;4910545;29;20032;-88
2023/02/26 03:14:44;;;;;;;3.22;0.10;;;-1.30;99.90;;;;;;4898292;29;20036;-88
2023/02/26 03:17:22;;;;;;;1.42;0.20;;;-1.30;99.90;;;;;;4905472;29;20355;-88
2023/02/26 03:20:06;;;;;;;2.92;0.10;;;-1.30;99.90;;;;;;4913455;29;20126;-88
2023/02/26 03:23:10;;;;;;;2.70;0.20;;;-1.30;99.90;;;;;;4907597;29;20477;-88
2023/02/26 03:25:44;;;;;;;2.13;0.28;;;-1.30;99.90;;;;;;4909161;29;20071;-88
2023/02/26 03:28:17;;;;;;;3.15;0.20;;;-1.30;99.90;;;;;;4905191;29;20091;-89
2023/02/26 03:30:51;;;;;;;3.22;0.32;;;-1.30;99.90;;;;;;4909395;29;20063;-89
2023/02/26 03:33:51;;;;;;;2.75;0.20;;;-1.40;99.90;;;;;;4908773;29;20029;-87
2023/02/26 03:36:27;;;;;;;4.47;0.28;;;-1.40;99.90;;;;;;4897868;29;20036;-89
2023/02/26 03:39:18;;;;;;;4.25;0.30;;;-1.50;99.90;;;;;;4907945;29;20131;-87
2023/02/26 03:41:55;;;;;;;6.20;0.43;;;-1.50;99.90;;;;;;4910181;29;20060;-89
2023/02/26 03:44:31;;;;;;;5.45;0.30;;;-1.50;99.90;;;;;;4920327;29;20413;-89
2023/02/26 03:47:05;;;;;;;2.83;0.30;;;-1.40;99.90;;;;;;4908803;29;20028;-88
2023/02/26 03:49:51;;;;;;;2.15;0.30;;;-1.40;99.90;;;;;;4907398;29;20409;-88
2023/02/26 03:52:19;;;;;;;1.85;0.20;;;-1.50;99.90;;;;;;4906349;29;20067;-87
2023/02/26 03:55:02;;;;;;;3.30;0.20;;;-1.50;99.90;;;;;;4908145;29;20188;-87
2023/02/26 03:57:58;;;;;;;2.88;0.60;;;-1.40;99.90;;;;;;4910175;29;20055;-89
2023/02/26 04:00:40;;;;;;;1.70;0.20;;;-1.40;99.90;;;;;;4910433;29;20036;-87
2023/02/26 04:03:29;;;;;;;1.40;0.20;;;-1.50;99.90;;;;;;4893026;29;20064;-88
2023/02/26 04:05:58;;;;;;;1.00;0.20;;;-1.50;99.90;;;;;;4911793;29;20032;-87
2023/02/26 04:08:25;;;;;;;3.90;0.10;;;-1.50;99.90;;;;;;4894538;29;20032;-89
2023/02/26 04:11:03;;;;;;;1.05;0.10;;;-1.60;99.90;;;;;;4911035;29;20076;-88
2023/02/26 04:13:29;;;;;;;1.02;0.10;;;-1.70;99.90;;;;;;4911990;29;20403;-89
2023/02/26 04:15:56;;;;;;;1.40;0.13;;;-1.70;99.90;;;;;;4899280;29;20035;-89
2023/02/26 04:18:22;;;;;;;1.23;0.13;;;-1.70;99.90;;;;;;4910645;29;20115;-88
2023/02/26 04:20:49;;;;;;;1.50;0.15;;;-1.70;99.90;;;;;;4892799;29;20024;-87
2023/02/26 04:23:16;;;;;;;0.95;0.10;;;-1.80;99.90;;;;;;4904002;29;20032;-88
2023/02/26 04:25:42;;;;;;;0.77;0.05;;;-1.90;99.90;;;;;;4920346;29;20039;-88
2023/02/26 04:28:10;;;;;;;1.15;0.15;;;-1.80;99.90;;;;;;4904793;29;20381;-89
2023/02/26 04:30:36;;;;;;;1.65;0.20;;;-1.70;99.90;;;;;;4909875;29;20159;-87
2023/02/26 04:33:03;;;;;;;1.02;0.10;;;-1.80;99.90;;;;;;4907710;29;20028;-88
2023/02/26 04:35:30;;;;;;;1.40;0.10;;;-1.90;99.90;;;;;;4894024;29;20118;-88
2023/02/26 04:37:57;;;;;;;1.35;0.20;;;-1.90;99.90;;;;;;4912667;29;20083;-87
2023/02/26 04:40:23;;;;;;;1.45;0.20;;;-1.80;99.90;;;;;;4913063;29;20123;-87
2023/02/26 04:42:49;;;;;;;0.93;0.10;;;-1.80;99.90;;;;;;4906472;29;20040;-88
2023/02/26 04:45:21;;;;;;;0.82;0.10;;;-1.70;99.90;;;;;;4921165;29;20426;-90
2023/02/26 04:47:47;;;;;;;1.10;0.10;;;-1.80;99.90;;;;;;4910826;29;20040;-87
2023/02/26 04:50:13;;;;;;;3.20;0.20;;;-1.70;99.90;;;;;;4922089;29;20475;-87
2023/02/26 04:52:41;;;;;;;1.92;0.10;;;-1.80;99.90;;;;;;4895606;29;20099;-89
2023/02/26 04:55:08;;;;;;;1.10;0.05;;;-1.80;99.90;;;;;;4911104;29;20079;-89
2023/02/26 04:57:37;;;;;;;0.88;0.10;;;-1.80;99.90;;;;;;4898320;29;20048;-87
2023/02/26 05:00:07;;;;;;;1.77;0.10;;;-1.80;99.90;;;;;;4910039;29;20426;-89
2023/02/26 05:02:35;;;;;;;1.60;0.10;;;-1.80;99.90;;;;;;4897104;29;20043;-87
2023/02/26 05:05:02;;;;;;;0.70;0.10;;;-1.80;99.90;;;;;;4906896;29;20039;-89
2023/02/26 05:07:28;;;;;;;1.52;0.10;;;-1.80;99.90;;;;;;4902771;29;20367;-88
2023/02/26 05:09:54;;;;;;;1.08;0.10;;;-1.90;99.90;;;;;;4909739;29;20127;-87
2023/02/26 05:12:20;;;;;;;0.10;0.00;;;-1.90;99.90;;;;;;4896489;29;20046;-89
2023/02/26 05:14:46;;;;;;;1.40;0.08;;;-1.90;99.90;;;;;;4909562;29;20032;-88
2023/02/26 05:17:12;;;;;;;0.45;0.00;;;-1.90;99.90;;;;;;4904066;29;20024;-88
2023/02/26 05:19:38;;;;;;;0.75;0.00;;;-2.00;99.90;;;;;;4890658;29;20064;-88
2023/02/26 05:22:05;;;;;;;1.25;0.08;;;-1.90;99.90;;;;;;4905092;29;20024;-87
2023/02/26 05:24:31;;;;;;;1.05;0.05;;;-2.10;99.90;;;;;;4907925;29;20109;-88
2023/02/26 05:26:57;;;;;;;1.65;0.10;;;-1.90;99.90;;;;;;4904540;29;20083;-89
2023/02/26 05:29:23;;;;;;;1.58;0.08;;;-2.00;99.90;;;;;;4908762;29;20028;-89
2023/02/26 05:31:50;;;;;;;0.85;0.10;;;-2.10;99.90;;;;;;4906185;29;20040;-88
2023/02/26 05:34:16;;;;;;;0.32;0.00;;;-2.00;99.90;;;;;;4917310;29;20267;-88
2023/02/26 05:36:42;;;;;;;0.82;0.00;;;-2.00;99.90;;;;;;4910723;29;20115;-86
2023/02/26 05:39:09;;;;;;;1.13;0.05;;;-2.10;99.90;;;;;;4904917;29;20040;-85
2023/02/26 05:41:35;;;;;;;1.45;0.20;;;-2.10;99.90;;;;;;4892297;29;20036;-88
2023/02/26 05:44:02;;;;;;;0.73;0.10;;;-2.00;99.90;;;;;;4906437;29;20043;-87
2023/02/26 05:46:28;;;;;;;1.85;0.30;;;-2.00;99.90;;;;;;4909045;29;20039;-87
2023/02/26 05:48:54;;;;;;;0.93;0.10;;;-2.10;99.90;;;;;;4904650;29;20029;-86
2023/02/26 05:51:20;;;;;;;0.77;0.10;;;-2.10;99.90;;;;;;4909354;29;20503;-86
2023/02/26 05:53:47;;;;;;;0.65;0.30;;;-2.00;99.90;;;;;;4910199;29;20063;-87
2023/02/26 05:56:13;;;;;;;1.25;0.10;;;-2.00;99.90;;;;;;4911330;29;20067;-88
2023/02/26 05:58:40;;;;;;;1.80;0.10;;;-2.00;99.90;;;;;;4895469;29;20610;-87
2023/02/26 06:01:06;;;;;;;0.93;0.10;;;-2.00;99.90;;;;;;4908351;29;20036;-87
2023/02/26 06:03:32;;;;;;;1.25;0.00;;;-2.10;99.90;;;;;;4910659;29;20120;-87
2023/02/26 06:05:58;;;;;;;0.32;0.00;;;-2.10;99.90;;;;;;4906676;29;20091;-86
2023/02/26 06:08:25;;;;;;;1.38;0.03;;;-2.10;99.90;;;;;;4905926;29;20124;-87
2023/02/26 06:10:51;;;;;;;0.57;0.10;;;-2.10;99.90;;;;;;4915310;29;20385;-86
2023/02/26 06:13:18;;;;;;;2.65;0.10;;;-2.10;99.90;;;;;;4894842;29;20038;-86
2023/02/26 06:15:44;;;;;;;0.45;0.03;;;-2.20;99.90;;;;;;4906199;29;20028;-86
2023/02/26 06:18:10;;;;;;;0.82;0.00;;;-2.10;99.90;;;;;;4909898;29;20910;-86
2023/02/26 06:20:36;;;;;;;4.03;0.10;;;-2.20;99.90;;;;;;4918840;29;20389;-86
2023/02/26 06:23:03;;;;;;;3.08;0.10;;;-2.00;99.90;;;;;;4906283;29;20033;-85
2023/02/26 06:25:30;;;;;;;0.85;0.00;;;-2.10;99.90;;;;;;4910722;29;20101;-86
2023/02/26 06:27:56;;;;;;;1.38;0.10;;;-2.10;99.90;;;;;;4907242;29;20111;-86
2023/02/26 06:30:22;;;;;;;0.88;0.10;;;-2.20;99.90;;;;;;4905211;29;20028;-86
2023/02/26 06:32:48;;;;;;;2.15;0.10;;;-2.20;99.90;;;;;;4912329;29;20037;-86
2023/02/26 06:35:18;;;;;;;1.77;0.10;;;-2.10;99.90;;;;;;4905186;29;20105;-86
2023/02/26 06:37:44;;;;;;;2.63;0.10;;;-2.00;99.90;;;;;;4905309;29;20043;-88
2023/02/26 06:40:10;;;;;;;0.82;0.10;;;-2.10;99.90;;;;;;4908752;29;20024;-87
2023/02/26 06:42:36;;;;;;;4.07;0.10;;;-2.00;99.90;;;;;;4910581;29;20024;-84
2023/02/26 06:45:04;;;;;;;1.02;0.10;;;-2.00;99.90;;;;;;4908265;29;20090;-86
2023/02/26 06:47:30;;;;;;;0.77;0.10;;;-2.00;99.90;;;;;;4907295;29;20035;-86
2023/02/26 06:49:56;;;;;;;1.42;0.10;;;-2.00;99.90;;;;;;4909795;29;20036;-86
2023/02/26 06:52:22;;;;;;;1.05;0.10;;;-2.00;99.90;;;;;;4903974;29;20076;-88
2023/02/26 06:54:48;;;;;;;1.85;0.10;;;-2.00;99.90;;;;;;4911413;29;20043;-87
2023/02/26 06:57:14;;;;;;;0.77;0.05;;;-2.10;99.90;;;;;;4901803;29;20645;-86
2023/02/26 06:59:39;;;;;;;0.90;0.00;;;-2.10;99.90;;;;;;4919768;29;20493;-87
2023/02/26 07:02:05;;;;;;;0.70;0.00;;;-2.10;99.90;;;;;;4912887;29;20471;-87
2023/02/26 07:04:31;;;;;;;1.23;0.00;;;-2.00;99.90;;;;;;4909828;29;20468;-87
2023/02/26 07:06:56;;;;;;;0.13;0.00;;;-2.00;99.90;;;;;;4906610;29;20025;-86
2023/02/26 07:09:22;;;;;;;0.65;0.00;;;-2.00;99.90;;;;;;4905046;29;20036;-85
2023/02/26 07:11:48;;;;;;;1.08;0.00;;;-2.00;99.90;;;;;;4906212;29;20079;-87
2023/02/26 07:14:13;;;;;;;2.05;0.05;;;-2.00;99.90;;;;;;4906150;29;20040;-87
2023/02/26 07:16:39;;;;;;;1.45;0.10;;;-2.10;99.90;;;;;;4921475;29;20040;-86
2023/02/26 07:19:05;;;;;;;1.92;0.00;;;-2.00;99.90;;;;;;4904443;29;20036;-87
2023/02/26 07:21:32;;;;;;;1.33;0.00;;;-1.90;99.90;;;;;;4889625;29;20036;-87
2023/02/26 07:23:57;;;;;;;0.68;0.05;;;-1.90;99.90;;;;;;4909803;29;20032;-86
2023/02/26 07:26:25;;;;;;;0.68;0.00;;;-1.90;99.90;;;;;;4922057;29;20057;-87
2023/02/26 07:28:51;;;;;;;0.65;0.00;;;-1.80;99.90;;;;;;4903580;29;20424;-88
2023/02/26 07:31:17;;;;;;;2.78;0.10;;;-1.80;99.90;;;;;;4902398;29;20548;-86
2023/02/26 07:33:42;;;;;;;0.47;0.13;;;-1.70;99.90;;;;;;4894622;29;20494;-86
2023/02/26 07:36:08;;;;;;;0.50;0.10;;;-1.70;99.90;;;;;;4904608;29;20473;-86
2023/02/26 07:38:34;;;;;;;1.42;0.05;;;-1.60;99.90;;;;;;4905750;29;20039;-86
2023/02/26 07:40:59;;;;;;;0.73;0.03;;;-1.50;99.90;;;;;;4919695;29;20049;-87
2023/02/26 07:43:25;;;;;;;1.35;0.10;;;-1.60;99.90;;;;;;4921210;29;20024;-87
2023/02/26 07:45:51;;;;;;;4.28;0.20;;;-1.40;99.90;;;;;;4910364;29;20449;-86
2023/02/26 07:48:17;;;;;;;0.43;0.00;;;-1.40;99.90;;;;;;4922507;29;20020;-86
2023/02/26 07:50:43;;;;;;;2.15;0.05;;;-1.30;99.90;;;;;;4908189;29;20067;-87
2023/02/26 07:53:09;;;;;;;0.52;0.05;;;-1.30;99.90;;;;;;4913006;29;20037;-86
2023/02/26 07:55:35;;;;;;;0.22;0.10;;;-1.20;99.90;;;;;;4913733;29;20032;-87
2023/02/26 07:58:01;;;;;;;1.52;0.15;;;-1.20;99.90;;;;;;4910486;29;20028;-86
2023/02/26 08:00:26;;;;;;;1.85;0.10;;;-1.20;99.90;;;;;;4912117;29;20042;-86
2023/02/26 08:02:52;;;;;;;0.98;0.00;;;-1.10;99.90;;;;;;4913991;29;20040;-86
2023/02/26 08:05:18;;;;;;;0.93;0.10;;;-1.00;99.90;;;;;;4924203;29;20070;-86
2023/02/26 08:07:43;;;;;;;0.77;0.47;;;-0.90;99.90;;;;;;4909183;29;20034;-86
2023/02/26 08:10:10;;;;;;;1.77;0.00;;;-0.80;99.90;;;;;;4915401;29;20032;-87
2023/02/26 08:12:36;;;;;;;1.08;0.00;;;-0.80;99.90;;;;;;4927545;29;20039;-87
2023/02/26 08:15:02;;;;;;;0.45;0.00;;;-0.60;99.90;;;;;;4914347;29;20373;-86
2023/02/26 08:17:28;;;;;;;1.70;0.10;;;-0.50;99.90;;;;;;4911121;29;20039;-87
2023/02/26 08:19:53;;;;;;;1.05;0.05;;;-0.40;99.90;;;;;;4908862;29;20035;-88
2023/02/26 08:22:20;;;;;;;1.38;0.00;;;-0.30;99.90;;;;;;4913515;29;20028;-88
2023/02/26 08:24:45;;;;;;;4.53;0.10;;;-0.20;99.90;;;;;;4913013;29;20032;-89
2023/02/26 08:27:11;;;;;;;1.13;0.10;;;-0.10;99.90;;;;;;4895679;29;20032;-88
2023/02/26 08:29:37;;;;;;;1.23;0.10;;;0.00;99.90;;;;;;4899920;29;20429;-88
2023/02/26 08:32:02;;;;;;;0.95;0.10;;;0.20;99.90;;;;;;4913244;29;20111;-88
2023/02/26 08:34:28;;;;;;;1.67;0.10;;;0.30;99.90;;;;;;4922439;29;20057;-88
2023/02/26 08:36:54;;;;;;;1.15;0.10;;;0.40;99.90;;;;;;4910977;29;20445;-89
2023/02/26 08:39:20;;;;;;;1.65;0.10;;;0.40;99.90;;;;;;4924600;29;20123;-87
2023/02/26 08:41:45;;;;;;;1.95;0.10;;;0.60;99.90;;;;;;4914201;29;20111;-87
2023/02/26 08:44:11;;;;;;;0.47;0.08;;;0.70;99.90;;;;;;4913772;29;20457;-89
2023/02/26 08:46:37;;;;;;;1.30;0.10;;;0.80;99.90;;;;;;4907397;29;20031;-89
2023/02/26 08:49:02;;;;;;;3.17;0.10;;;1.00;99.90;;;;;;4911837;29;20028;-87
2023/02/26 08:51:28;;;;;;;1.00;0.10;;;0.90;99.90;;;;;;4924434;29;20499;-88
2023/02/26 08:53:54;;;;;;;1.55;0.08;;;1.00;99.90;;;;;;4900111;29;20468;-88
2023/02/26 08:56:19;;;;;;;1.27;0.10;;;1.10;99.90;;;;;;4914438;29;20138;-89
2023/02/26 08:58:45;;;;;;;0.77;0.03;;;1.20;99.90;;;;;;4896300;29;20064;-87
2023/02/26 09:01:11;;;;;;;0.77;0.10;;;1.30;99.90;;;;;;4908256;29;20471;-89
2023/02/26 09:03:37;;;;;;;3.00;0.10;;;1.50;99.90;;;;;;4907281;29;20071;-89
2023/02/26 09:06:03;;;;;;;1.52;0.20;;;1.60;99.90;;;;;;4911796;29;20105;-89
2023/02/26 09:08:32;;;;;;;0.30;0.00;;;1.60;99.90;;;;;;4889166;29;20035;-86
2023/02/26 09:11:02;;;;;;;1.25;0.10;;;1.70;99.90;;;;;;4915034;29;20040;-87
2023/02/26 09:13:28;;;;;;;3.03;0.05;;;1.80;99.90;;;;;;4906699;29;20188;-89
2023/02/26 09:15:54;;;;;;;0.73;0.00;;;2.00;99.90;;;;;;4911656;29;20374;-89
2023/02/26 09:18:20;;;;;;;1.95;0.10;;;2.10;99.90;;;;;;4910336;29;20038;-86
2023/02/26 09:20:46;;;;;;;2.65;0.00;;;2.20;99.90;;;;;;4896398;29;20028;-88
2023/02/26 09:23:12;;;;;;;5.97;0.22;;;2.10;99.90;;;;;;4906354;29;20529;-87
2023/02/26 09:25:38;;;;;;;0.80;0.10;;;2.20;99.90;;;;;;4915234;29;20042;-88
2023/02/26 09:28:04;;;;;;;1.35;0.10;;;2.30;99.90;;;;;;4914819;29;20043;-89
2023/02/26 09:30:30;;;;;;;1.75;0.10;;;2.30;99.90;;;;;;4910003;29;20024;-89
2023/02/26 09:32:55;;;;;;;0.95;0.03;;;2.50;99.90;;;;;;4895634;29;20107;-89
2023/02/26 09:35:21;;;;;;;3.05;0.10;;;2.60;99.90;;;;;;4889155;29;20031;-89
2023/02/26 09:37:47;;;;;;;1.55;0.10;;;2.80;99.90;;;;;;4922156;29;20047;-88
2023/02/26 09:40:49;;;;;;;1.30;0.10;;;2.90;99.90;;;;;;4913406;29;20028;-90
2023/02/26 09:43:35;;;;;;;1.63;0.10;;;2.90;99.90;;;;;;4912865;29;20028;-93
2023/02/26 09:46:15;;;;;;;0.30;0.00;;;3.00;99.90;;;;;;4907561;29;20050;-91
2023/02/26 09:48:43;;;;;;;0.77;0.08;;;3.00;99.90;;;;;;4903921;29;20088;-89
2023/02/26 09:51:15;;;;;;;0.60;0.10;;;3.20;99.90;;;;;;4909239;29;20044;-93
2023/02/26 09:53:41;;;;;;;1.23;0.00;;;3.20;99.90;;;;;;4889103;29;20032;-89
2023/02/26 09:56:16;;;;;;;1.35;0.10;;;3.10;99.90;;;;;;4894188;29;20489;-91
2023/02/26 09:58:43;;;;;;;1.55;0.10;;;3.30;99.90;;;;;;4901030;29;20400;-91
2023/02/26 10:01:22;;;;;;;1.33;0.10;;;3.20;99.90;;;;;;4913907;29;20103;-87
2023/02/26 10:04:23;;;;;;;1.02;0.10;;;3.10;99.90;;;;;;4919924;29;20042;-88
2023/02/26 10:07:19;;;;;;;1.42;0.00;;;3.20;99.90;;;;;;4914041;29;20182;-90
2023/02/26 10:10:11;;;;;;;2.45;0.10;;;3.30;99.90;;;;;;4916635;29;20031;-90
2023/02/26 10:12:40;;;;;;;0.85;0.05;;;3.50;99.90;;;;;;4893080;29;20039;-90
2023/02/26 10:15:25;;;;;;;0.70;0.10;;;3.30;99.90;;;;;;4910188;29;20043;-87
2023/02/26 10:17:59;;;;;;;0.50;0.05;;;3.40;99.90;;;;;;4895483;29;20036;-92
2023/02/26 10:20:35;;;;;;;3.20;0.03;;;3.50;99.90;;;;;;4910781;29;20056;-88
2023/02/26 10:23:15;;;;;;;0.68;0.05;;;3.60;99.90;;;;;;4912438;29;20038;-90
2023/02/26 10:25:47;;;;;;;1.02;0.10;;;3.60;99.90;;;;;;4909458;29;20118;-88
2023/02/26 10:28:15;;;;;;;0.73;0.10;;;3.70;99.90;;;;;;4912214;29;20102;-91
2023/02/26 10:30:48;;;;;;;2.40;0.10;;;3.60;99.90;;;;;;4905044;29;20040;-93
2023/02/26 10:33:28;;;;;;;1.20;0.10;;;3.80;99.90;;;;;;4910597;29;20469;-89
2023/02/26 10:35:59;;;;;;;0.32;0.10;;;3.70;99.90;;;;;;4916303;29;20102;-91
2023/02/26 10:38:30;;;;;;;0.68;0.10;;;3.90;99.90;;;;;;4909477;29;20036;-91
2023/02/26 10:41:01;;;;;;;0.95;0.10;;;4.00;99.90;;;;;;4924168;29;20024;-89
2023/02/26 10:43:34;;;;;;;0.40;0.10;;;3.90;99.90;;;;;;4914347;29;20104;-92
2023/02/26 10:46:16;;;;;;;2.05;0.10;;;3.90;99.90;;;;;;4908260;29;20042;-92
2023/02/26 10:48:56;;;;;;;0.55;0.10;;;4.10;99.90;;;;;;4911163;29;20124;-91
2023/02/26 10:51:40;;;;;;;3.25;0.10;;;4.30;99.90;;;;;;4914151;29;20086;-93
2023/02/26 10:54:20;;;;;;;0.82;0.00;;;4.30;99.90;;;;;;4927992;29;20069;-93
2023/02/26 10:56:46;;;;;;;0.88;0.00;;;4.30;99.90;;;;;;4914428;29;20151;-91
2023/02/26 10:59:12;;;;;;;0.63;0.10;;;4.20;99.90;;;;;;4906386;29;20139;-90
2023/02/26 11:01:45;;;;;;;1.27;0.00;;;4.60;99.90;;;;;;4911586;29;20100;-95
2023/02/26 11:04:17;;;;;;;1.13;0.00;;;4.80;99.90;;;;;;4896864;29;20055;-91
2023/02/26 11:06:54;;;;;;;0.20;0.00;;;4.50;99.90;;;;;;4915770;29;20034;-90
2023/02/26 11:09:30;;;;;;;0.90;0.00;;;4.20;99.90;;;;;;4912210;29;20031;-92
2023/02/26 11:12:03;;;;;;;0.52;0.00;;;4.50;99.90;;;;;;4911846;29;20042;-92
2023/02/26 11:14:31;;;;;;;0.98;0.10;;;4.70;99.90;;;;;;4899512;29;20483;-93
2023/02/26 11:17:01;;;;;;;0.35;0.00;;;4.90;99.90;;;;;;4916722;29;20127;-94
2023/02/26 11:19:49;;;;;;;2.17;0.10;;;4.80;99.90;;;;;;4935080;29;20063;-94
2023/02/26 11:22:15;;;;;;;1.45;0.00;;;4.90;99.90;;;;;;4902874;29;20054;-93
2023/02/26 11:24:46;;;;;;;1.80;0.10;;;4.90;99.90;;;;;;4919050;29;20036;-93
2023/02/26 11:27:17;;;;;;;1.05;0.10;;;4.90;99.90;;;;;;4918164;29;20459;-92
2023/02/26 11:29:47;;;;;;;0.45;0.10;;;5.10;99.90;;;;;;4919381;29;20476;-93
2023/02/26 11:32:18;;;;;;;0.82;0.10;;;5.20;99.90;;;;;;4919700;29;20066;-93
2023/02/26 11:34:50;;;;;;;0.20;0.00;;;5.50;99.90;;;;;;4931934;29;20047;-95
2023/02/26 11:37:20;;;;;;;0.55;0.00;;;5.50;99.90;;;;;;4901302;29;20062;-90
2023/02/26 11:39:46;;;;;;;1.73;0.10;;;5.70;99.90;;;;;;4918870;29;20035;-92
2023/02/26 11:42:13;;;;;;;0.75;0.00;;;5.60;99.90;;;;;;4916183;29;20066;-90
2023/02/26 11:44:42;;;;;;;1.48;0.10;;;5.70;99.90;;;;;;4923725;29;20027;-92
2023/02/26 11:47:25;;;;;;;0.17;0.00;;;5.70;99.90;;;;;;4917273;29;20059;-93
2023/02/26 11:49:54;;;;;;;0.88;0.08;;;5.60;99.90;;;;;;4920330;29;20044;-94
2023/02/26 11:52:28;;;;;;;1.63;0.10;;;5.50;99.90;;;;;;4920154;29;20194;-92
2023/02/26 11:55:01;;;;;;;0.55;0.00;;;5.60;99.90;;;;;;4915607;29;20119;-91
2023/02/26 11:57:29;;;;;;;1.88;0.00;;;5.70;99.90;;;;;;4900876;29;20139;-90
2023/02/26 11:59:58;;;;;;;1.02;0.10;;;5.30;99.90;;;;;;4897412;29;20055;-90
2023/02/26 12:02:30;;;;;;;1.70;0.00;;;5.70;99.90;;;;;;4916377;29;20027;-89
2023/02/26 12:04:59;;;;;;;0.82;0.10;;;5.50;99.90;;;;;;4914828;29;20135;-92
2023/02/26 12:07:26;;;;;;;0.35;0.00;;;5.30;99.90;;;;;;4916860;29;20031;-93
2023/02/26 12:09:52;;;;;;;0.50;0.00;;;4.70;99.90;;;;;;4916712;29;20404;-91
2023/02/26 12:12:23;;;;;;;1.48;0.05;;;5.00;99.90;;;;;;4932244;29;20032;-92
2023/02/26 12:15:12;;;;;;;0.50;0.00;;;5.00;99.90;;;;;;4929529;29;20038;-89
2023/02/26 12:18:07;;;;;;;0.25;0.10;;;5.00;99.90;;;;;;4916123;29;20047;-94
2023/02/26 12:21:08;;;;;;;1.63;0.50;;;5.00;99.90;;;;;;4919947;29;20031;-92
2023/02/26 12:23:49;;;;;;;1.27;0.10;;;4.90;99.90;;;;;;4913612;29;20540;-91
2023/02/26 12:26:30;;;;;;;0.68;0.10;;;5.00;99.90;;;;;;4930686;29;20031;-92
2023/02/26 12:29:11;;;;;;;0.98;0.00;;;5.30;99.90;;;;;;4914084;29;20035;-93
2023/02/26 12:32:02;;;;;;;0.40;0.00;;;5.30;99.90;;;;;;4915287;29;20058;-94
2023/02/26 12:34:57;;;;;;;1.42;0.10;;;5.40;99.90;;;;;;4916335;29;20028;-90
2023/02/26 12:37:33;;;;;;;0.75;0.10;;;5.40;99.90;;;;;;4917400;29;20035;-92
2023/02/26 12:40:10;;;;;;;0.77;0.00;;;5.50;99.90;;;;;;4912863;29;20066;-90
2023/02/26 12:42:54;;;;;;;0.90;0.00;;;5.60;99.90;;;;;;4915383;29;20028;-91
2023/02/26 12:45:54;;;;;;;1.25;0.00;;;5.60;99.90;;;;;;4929648;29;20032;-92
2023/02/26 12:48:44;;;;;;;0.32;0.03;;;5.60;99.90;;;;;;4912927;29;20031;-92
2023/02/26 12:51:25;;;;;;;0.50;0.10;;;5.90;99.90;;;;;;4897371;29;20135;-90
2023/02/26 12:54:12;;;;;;;0.90;0.10;;;5.90;99.90;;;;;;4916127;29;20122;-92
2023/02/26 12:56:51;;;;;;;1.55;0.05;;;6.10;99.90;;;;;;4917471;29;20139;-93
2023/02/26 12:59:29;;;;;;;0.57;0.10;;;6.30;99.90;;;;;;4916101;29;20028;-89
2023/02/26 13:02:25;;;;;;;0.40;0.00;;;6.00;99.90;;;;;;4913208;29;20062;-92
2023/02/26 13:05:15;;;;;;;0.60;0.10;;;5.70;99.90;;;;;;4914568;29;20126;-94
2023/02/26 13:08:01;;;;;;;;;;;5.90;99.90;;;;;;4912165;29;20061;-92
2023/02/26 13:10:53;;;;;;;0.50;0.00;;;6.10;99.90;;;;;;4910738;29;19922;-90
2023/02/26 13:13:49;;;;;;;1.50;0.10;;;6.20;99.90;;;;;;4908889;29;20044;-90
2023/02/26 13:16:27;;;;;;;0.90;0.00;;;5.90;99.90;;;;;;4909991;29;20032;-87